Flight Track Log - Related Links

Times and Time Zones

All times are in EDT time to prevent confusion due to time zone crossing. See the EGF3773 flight status page for this flight to view local times or setup timezone preferences in your user account.

Time Position Orientation Groundspeed Altitude Reporting Facility
EDT Latitude Longitude Course Direction KTS MPH feet Rate Location/Type
Fri 08:15:45 PM 39.8833 -104.6000 79° East 169 194 6,500  Level Denver TRACON
Fri 08:16:39 PM 39.8833 -104.5333 90° East 214 246 8,200 1,737 Climbing Denver TRACON
Fri 08:17:00 PM 39.9030 -104.3696 80° East  Level FlightAware Approximate
Fri 08:17:39 PM 39.9000 -104.4333 78° East 274 315 9,800  Level Denver TRACON
Fri 08:18:00 PM 39.9275 -104.2201 73° East  Level FlightAware Approximate
Fri 08:19:00 PM 39.9613 -104.0734 73° East  Level FlightAware Approximate
Fri 08:19:16 PM 39.9139 -104.2553 84° East 352 405 10,800  Level Denver Center
Fri 08:20:00 PM 39.9844 -103.9258 79° East  Level FlightAware Approximate
Fri 08:20:18 PM 39.9447 -104.1200 73° East 390 449 12,900  Level Denver Center
Fri 08:21:20 PM 39.9736 -103.9875 74° East 386 444 15,100 1,790 Climbing Denver Center
Fri 08:22:22 PM 40.0064 -103.8336 74° East 411 473 16,600 1,500 Climbing Denver Center
Fri 08:23:24 PM 40.0372 -103.6750 76° East 415 478 18,200 1,659 Climbing Denver Center
Fri 08:24:25 PM 40.0631 -103.5175 78° East 436 502 20,000 1,512 Climbing Denver Center
Fri 08:25:27 PM 40.0881 -103.3564 78° East 447 514 21,300 1,306 Climbing Denver Center
Fri 08:26:29 PM 40.1144 -103.1925 78° East 456 525 22,700 1,403 Climbing Denver Center
Fri 08:27:31 PM 40.1408 -103.0275 78° East 461 531 24,200 1,403 Climbing Denver Center
Fri 08:28:33 PM 40.1672 -102.8644 78° East 455 524 25,600 1,403 Climbing Denver Center
Fri 08:29:35 PM 40.1911 -102.7000 79° East 456 525 27,100 1,268 Climbing Denver Center
Fri 08:30:36 PM 40.2183 -102.5328 78° East 457 526 28,200 1,073 Climbing Denver Center
Fri 08:31:38 PM 40.2450 -102.3483 79° East 462 532 29,300 1,016 Climbing Denver Center
Fri 08:32:40 PM 40.2711 -102.1889 78° East 466 536 30,300 1,016 Climbing Denver Center
Fri 08:33:42 PM 40.2975 -102.0008 80° East 471 542 31,400 1,016 Climbing Denver Center
Fri 08:34:44 PM 40.3228 -101.8386 78° East 474 545 32,400 774 Climbing Denver Center
Fri 08:35:46 PM 40.3461 -101.6789 79° East 470 541 33,000 829 Climbing Denver Center
Fri 08:36:47 PM 40.3725 -101.4903 80° East 472 543 34,100 976 Climbing Denver Center
Fri 08:37:49 PM 40.3958 -101.3300 79° East 471 542 35,000 1,016 Climbing Denver Center
Fri 08:38:51 PM 40.4231 -101.1442 79° East 468 539 36,200 968 Climbing Denver Center
Fri 08:39:53 PM 40.4453 -100.9872 79° East 461 531 37,000 390 Climbing Denver Center
Fri 08:40:54 PM 40.4956 -100.8106 69° East 466 536 37,000  Level Denver Center
Fri 08:41:56 PM 40.5519 -100.6594 64° Northeast 480 552 37,000  Level Denver Center
Fri 08:42:58 PM 40.6158 -100.4839 64° Northeast 482 555 37,000  Level Denver Center
Fri 08:44:00 PM 40.6703 -100.3325 65° Northeast 483 556 37,000  Level Denver Center
Fri 08:45:01 PM 40.7342 -100.1553 65° Northeast 483 556 37,000  Level Denver Center
Fri 08:46:03 PM 40.7883 -100.0014 65° Northeast 484 557 37,000  Level Denver Center
Fri 08:47:05 PM 40.8511 -99.8225 65° Northeast 483 556 37,000  Level Denver Center
Fri 08:48:06 PM 40.8997 -99.6842 65° Northeast 482 555 37,000  Level Denver Center
Fri 08:49:08 PM 40.9672 -99.4900 65° Northeast 484 557 37,000  Level Denver Center
Fri 08:50:09 PM 41.0231 -99.3297 65° Northeast 480 552 37,000  Level Denver Center
Fri 08:51:11 PM 41.0781 -99.1700 65° Northeast 477 549 37,000  Level Denver Center
Fri 08:51:55 PM 41.1139 -99.0672 65° Northeast 476 548 37,000  Level Minneapolis Center
Fri 08:52:13 PM 41.1344 -99.0056 66° East 476 548 37,000  Level Denver Center
Fri 08:53:14 PM 41.1853 -98.8511 66° East 476 548 37,000  Level Denver Center
Fri 08:53:59 PM 41.2161 -98.7411 70° East 478 550 37,000  Level Minneapolis Center
Fri 08:55:02 PM 41.2447 -98.5319 80° East 477 549 37,000  Level Minneapolis Center
Fri 08:56:04 PM 41.2783 -98.3517 76° East 480 552 37,000  Level Minneapolis Center
Fri 08:57:06 PM 41.3092 -98.1794 77° East 479 551 37,000  Level Minneapolis Center
Fri 08:58:08 PM 41.3397 -98.0142 76° East 480 552 37,000  Level Minneapolis Center
Fri 08:59:10 PM 41.3708 -97.8403 77° East 482 555 37,000  Level Minneapolis Center
Fri 09:00:12 PM 41.4017 -97.6667 77° East 482 555 37,000  Level Minneapolis Center
Fri 09:01:14 PM 41.4381 -97.4569 77° East 483 556 37,000  Level Minneapolis Center
Fri 09:02:16 PM 41.4697 -97.2814 76° East 486 559 37,000  Level Minneapolis Center
Fri 09:03:18 PM 41.5000 -97.1047 77° East 487 560 37,000  Level Minneapolis Center
Fri 09:04:20 PM 41.5292 -96.9281 78° East 487 560 37,000  Level Minneapolis Center
Fri 09:05:22 PM 41.5583 -96.7511 78° East 487 560 37,000  Level Minneapolis Center
Fri 09:06:24 PM 41.5892 -96.5739 77° East 487 560 37,000  Level Minneapolis Center
Fri 09:07:26 PM 41.6175 -96.3969 78° East 486 559 37,000  Level Minneapolis Center
Fri 09:08:28 PM 41.6539 -96.1797 77° East 491 565 37,000  Level Minneapolis Center
Fri 09:09:30 PM 41.6822 -95.9992 78° East 489 563 37,000  Level Minneapolis Center
Fri 09:10:32 PM 41.7108 -95.8186 78° East 491 565 37,000  Level Minneapolis Center
Fri 09:11:34 PM 41.7394 -95.6386 78° East 491 565 37,000  Level Minneapolis Center
Fri 09:12:36 PM 41.7681 -95.4594 78° East 491 565 37,000  Level Minneapolis Center
Fri 09:13:38 PM 41.7958 -95.2797 78° East 491 565 37,000  Level Minneapolis Center
Fri 09:14:40 PM 41.8231 -95.0986 79° East 494 568 37,000  Level Minneapolis Center
Fri 09:15:42 PM 41.8506 -94.9161 79° East 496 571 37,000  Level Minneapolis Center
Fri 09:16:44 PM 41.8831 -94.6975 79° East 498 573 37,000  Level Minneapolis Center
Fri 09:17:47 PM 41.9100 -94.5167 79° East 495 570 37,000  Level Minneapolis Center
Fri 09:18:49 PM 41.9364 -94.3328 79° East 500 575 37,000  Level Minneapolis Center
Fri 09:19:51 PM 41.9628 -94.1494 79° East 501 577 37,000  Level Minneapolis Center
Fri 09:20:53 PM 41.9881 -93.9650 79° East 501 577 37,000  Level Minneapolis Center
Fri 09:21:55 PM 42.0167 -93.7714 79° East 503 579 37,000  Level Minneapolis Center
Fri 09:22:57 PM 42.0428 -93.5878 79° East 504 580 37,000  Level Minneapolis Center
Fri 09:23:59 PM 42.0672 -93.4042 80° East 505 581 37,000  Level Minneapolis Center
Fri 09:25:01 PM 42.0975 -93.1817 80° East 507 583 37,000  Level Minneapolis Center
Fri 09:26:03 PM 42.1222 -92.9953 80° East 511 588 37,000  Level Minneapolis Center
Fri 09:27:05 PM 42.1472 -92.8083 80° East 512 589 37,000  Level Minneapolis Center
Fri 09:28:19 PM 42.1767 -92.5831 80° East 513 590 37,000  Level Minneapolis Center
Fri 09:29:21 PM 42.2056 -92.3572 80° East 516 594 37,000 -242 Level Minneapolis Center
Fri 09:30:23 PM 42.2292 -92.1697 80° East 515 593 36,500 -737 Descending Minneapolis Center
Fri 09:31:15 PM 42.2469 -92.0211 81° East 504 580 35,600 -947 Descending Chicago Center
Fri 09:32:17 PM 42.2692 -91.8378 81° East 503 579 34,700 -1,024 Descending Chicago Center
Fri 09:33:18 PM 42.2975 -91.6122 80° East 514 592 33,500 -1,073 Descending Chicago Center
Fri 09:34:20 PM 42.3194 -91.4247 81° East 515 593 32,500 -968 Descending Chicago Center
Fri 09:35:22 PM 42.3406 -91.2408 81° East 509 586 31,500 -976 Descending Chicago Center
Fri 09:36:23 PM 42.3614 -91.0564 81° East 505 581 30,500 -976 Descending Chicago Center
Fri 09:37:25 PM 42.3822 -90.8747 81° East 499 574 29,500 -1,065 Descending Chicago Center
Fri 09:38:27 PM 42.4061 -90.6603 81° East 488 562 28,300 -1,073 Descending Chicago Center
Fri 09:39:28 PM 42.4228 -90.4869 83° East 473 544 27,300 -927 Descending Chicago Center
Fri 09:40:30 PM 42.4411 -90.3083 82° East 483 556 26,400 -1,104 Descending Chicago Center
Fri 09:41:33 PM 42.4597 -90.1308 82° East 484 557 25,000 -1,756 Descending Chicago Center
Fri 09:42:33 PM 42.4761 -89.9581 83° East 473 544 22,800 -2,262 Descending Chicago Center
Fri 09:43:35 PM 42.4958 -89.7550 82° East 458 527 20,400 -2,146 Descending Chicago Center
Fri 09:44:36 PM 42.5125 -89.5906 82° East 444 511 18,400 -1,805 Descending Chicago Center
Fri 09:45:38 PM 42.5275 -89.4283 83° East 436 502 16,700 -1,756 Descending Chicago Center
Fri 09:46:39 PM 42.5419 -89.2717 83° East 424 488 14,800 -1,317 Descending Chicago Center
Fri 09:47:41 PM 42.5533 -89.1194 84° East 411 473 14,000 -387 Descending Chicago Center
Fri 09:48:43 PM 42.5183 -88.9742 108° East 412 474 14,000 -634 Level Chicago Center
Fri 09:49:44 PM 42.4700 -88.8119 112° Southeast 400 460 12,700 -1,561 Descending Chicago Center
Fri 09:50:46 PM 42.4303 -88.6814 112° Southeast 379 436 10,800 -1,512 Descending Chicago Center
Fri 09:51:47 PM 42.3958 -88.5694 113° Southeast 329 379 9,600 -878 Descending Chicago Center
Fri 09:52:49 PM 42.3653 -88.4728 113° Southeast 293 337 9,000 -537 Descending Chicago Center
Fri 09:53:50 PM 42.3219 -88.3692 119° Southeast 295 339 8,500 -732 Descending Chicago Center
Fri 09:54:52 PM 42.2694 -88.2925 133° Southeast 282 325 7,500 -1,065 Descending Chicago Center
Fri 09:55:54 PM 42.2211 -88.2172 131° Southeast 271 312 6,300 -976 Descending Chicago Center
Fri 09:56:55 PM 42.1731 -88.1461 132° Southeast 262 302 5,500 -787 Descending Chicago Center

Login

Don't have an account? Register now (free) for customized features, flight alerts, and more!